createdAt,value
2018-07-08T00:00:22.588Z,7.07
2018-07-08T00:02:51.090Z,7.30
2018-07-08T00:05:19.499Z,7.33
2018-07-08T00:07:47.904Z,7.60
2018-07-08T00:10:16.538Z,6.90
2018-07-08T00:12:44.922Z,7.10
2018-07-08T00:15:13.322Z,7.53
2018-07-08T00:17:41.706Z,7.87
2018-07-08T00:20:10.115Z,7.40
2018-07-08T00:22:39.083Z,7.10
2018-07-08T00:25:08.066Z,7.70
2018-07-08T00:27:36.479Z,7.33
2018-07-08T00:30:05.955Z,8.40
2018-07-08T00:32:34.378Z,7.83
2018-07-08T00:35:02.773Z,7.80
2018-07-08T00:37:31.165Z,7.80
2018-07-08T00:39:59.995Z,8.60
2018-07-08T00:42:28.393Z,7.83
2018-07-08T00:44:56.770Z,9.57
2018-07-08T00:47:25.171Z,9.90
2018-07-08T00:49:53.769Z,9.07
2018-07-08T00:52:22.169Z,8.73
2018-07-08T00:54:51.499Z,8.87
2018-07-08T00:57:19.907Z,8.77
2018-07-08T00:59:48.745Z,9.47
2018-07-08T01:02:17.141Z,9.40
2018-07-08T01:04:45.707Z,10.10
2018-07-08T01:07:14.119Z,8.70
2018-07-08T01:09:42.553Z,8.47
2018-07-08T01:12:10.967Z,9.33
2018-07-08T01:14:39.609Z,8.80
2018-07-08T01:17:08.035Z,10.40
2018-07-08T01:19:36.440Z,9.07
2018-07-08T01:22:05.587Z,9.50
2018-07-08T01:24:34.052Z,9.47
2018-07-08T01:27:02.474Z,9.73
2018-07-08T01:29:30.900Z,10.23
2018-07-08T01:31:59.303Z,9.23
2018-07-08T01:34:27.685Z,10.27
2018-07-08T01:36:56.082Z,9.23
2018-07-08T01:39:24.493Z,10.23
2018-07-08T01:41:52.906Z,9.77
2018-07-08T01:44:22.087Z,9.77
2018-07-08T01:46:50.495Z,10.27
2018-07-08T01:49:18.902Z,10.17
2018-07-08T01:51:47.301Z,10.27
2018-07-08T01:54:16.153Z,9.80
2018-07-08T01:56:44.567Z,9.63
2018-07-08T01:59:13.313Z,10.70
2018-07-08T02:01:41.722Z,9.80
2018-07-08T02:04:10.125Z,10.00
2018-07-08T02:06:38.519Z,8.67
2018-07-08T02:09:07.228Z,8.97
2018-07-08T02:11:35.618Z,9.17
2018-07-08T02:14:04.030Z,9.10
2018-07-08T02:16:33.021Z,9.30
2018-07-08T02:19:01.433Z,8.40
2018-07-08T02:21:29.826Z,9.33
2018-07-08T02:23:58.227Z,9.37
2018-07-08T02:26:26.626Z,8.60
2018-07-08T02:28:55.027Z,9.47
2018-07-08T02:31:23.467Z,9.10
2018-07-08T02:33:51.870Z,8.33
2018-07-08T02:36:20.281Z,8.30
2018-07-08T02:38:48.677Z,9.17
2018-07-08T02:41:17.074Z,8.07
2018-07-08T02:43:45.494Z,8.60
2018-07-08T02:46:13.887Z,8.33
2018-07-08T02:48:42.290Z,7.23
2018-07-08T02:51:10.692Z,7.90
2018-07-08T02:53:39.115Z,7.93
2018-07-08T02:56:07.502Z,7.93
2018-07-08T02:58:35.884Z,8.00
2018-07-08T03:01:04.320Z,8.60
2018-07-08T03:03:32.806Z,8.43
2018-07-08T03:06:01.300Z,8.80
2018-07-08T03:08:29.690Z,8.30
2018-07-08T03:10:58.114Z,8.87
2018-07-08T03:13:26.516Z,8.00
2018-07-08T03:15:54.928Z,7.70
2018-07-08T03:18:23.318Z,7.87
2018-07-08T03:20:51.722Z,7.40
2018-07-08T03:23:20.128Z,7.33
2018-07-08T03:25:48.540Z,8.50
2018-07-08T03:28:16.928Z,8.73
2018-07-08T03:30:45.321Z,7.77
2018-07-08T03:33:13.720Z,8.43
2018-07-08T03:35:42.136Z,8.60
2018-07-08T03:38:10.970Z,6.93
2018-07-08T03:40:39.362Z,7.60
2018-07-08T03:43:08.020Z,7.30
2018-07-08T03:45:36.406Z,7.90
2018-07-08T03:48:05.438Z,7.23
2018-07-08T03:50:33.856Z,7.07
2018-07-08T03:53:02.251Z,6.93
2018-07-08T03:55:30.672Z,7.57
2018-07-08T03:57:59.107Z,6.80
2018-07-08T04:00:27.518Z,6.20
2018-07-08T04:02:55.941Z,5.83
2018-07-08T04:05:24.346Z,5.73
2018-07-08T04:07:52.782Z,5.00
2018-07-08T04:10:21.167Z,6.13
2018-07-08T04:12:49.913Z,5.43
2018-07-08T04:15:18.342Z,5.20
2018-07-08T04:17:46.743Z,6.27
2018-07-08T04:20:15.142Z,5.37
2018-07-08T04:22:43.715Z,5.23
2018-07-08T04:25:12.177Z,5.03
2018-07-08T04:27:40.569Z,4.73
2018-07-08T04:30:08.973Z,5.00
2018-07-08T04:32:37.370Z,5.17
2018-07-08T04:35:06.250Z,4.40
2018-07-08T04:37:34.643Z,4.63
2018-07-08T04:40:03.099Z,4.50
2018-07-08T04:42:31.502Z,4.83
2018-07-08T04:44:59.891Z,4.57
2018-07-08T04:47:28.061Z,4.07
2018-07-08T04:49:57.141Z,4.33
2018-07-08T04:52:25.533Z,3.97
2018-07-08T04:54:53.922Z,3.83
2018-07-08T04:57:22.338Z,3.93
2018-07-08T04:59:51.180Z,3.87
2018-07-08T05:02:19.574Z,3.90
2018-07-08T05:04:48.408Z,4.20
2018-07-08T05:07:16.812Z,3.70
2018-07-08T05:09:46.016Z,3.40
2018-07-08T05:12:14.436Z,3.63
2018-07-08T05:14:42.852Z,3.33
2018-07-08T05:17:12.300Z,3.93
2018-07-08T05:19:41.477Z,3.83
2018-07-08T05:22:09.959Z,3.50
2018-07-08T05:24:38.908Z,4.00
2018-07-08T05:27:07.288Z,3.93
2018-07-08T05:29:35.776Z,3.90
2018-07-08T05:32:04.598Z,3.50
2018-07-08T05:34:33.262Z,3.90
2018-07-08T05:37:01.654Z,3.80
2018-07-08T05:39:30.066Z,3.80
2018-07-08T05:41:58.456Z,3.77
2018-07-08T05:44:26.854Z,3.50
2018-07-08T05:46:55.243Z,3.40
2018-07-08T05:49:23.638Z,3.10
2018-07-08T05:51:52.065Z,3.50
2018-07-08T05:54:20.479Z,3.27
2018-07-08T05:56:49.224Z,3.73
2018-07-08T05:59:17.605Z,3.20
2018-07-08T06:01:45.994Z,3.77
2018-07-08T06:04:14.406Z,3.57
2018-07-08T06:06:42.804Z,3.10
2018-07-08T06:09:11.203Z,3.23
2018-07-08T06:11:39.969Z,3.30
2018-07-08T06:14:08.369Z,3.50
2018-07-08T06:16:36.778Z,3.47
2018-07-08T06:19:05.177Z,3.10
2018-07-08T06:21:33.590Z,3.30
2018-07-08T06:24:01.972Z,3.13
2018-07-08T06:26:30.375Z,3.57
2018-07-08T06:28:58.771Z,3.67
2018-07-08T06:31:27.173Z,3.30
2018-07-08T06:33:56.372Z,3.27
2018-07-08T06:36:24.937Z,3.07
2018-07-08T06:38:53.770Z,3.70
2018-07-08T06:41:22.181Z,3.27
2018-07-08T06:43:51.376Z,3.43
2018-07-08T06:46:19.765Z,3.30
2018-07-08T06:48:48.162Z,3.57
2018-07-08T06:51:16.846Z,3.03
2018-07-08T06:53:45.719Z,3.30
2018-07-08T06:56:14.106Z,3.13
2018-07-08T06:58:42.560Z,3.23
2018-07-08T07:01:10.966Z,3.00
2018-07-08T07:03:39.366Z,3.07
2018-07-08T07:06:07.772Z,3.57
2018-07-08T07:08:36.188Z,3.20
2018-07-08T07:11:04.582Z,2.80
2018-07-08T07:13:33.186Z,2.63
2018-07-08T07:16:01.591Z,2.50
2018-07-08T07:18:30.138Z,2.83
2018-07-08T07:20:58.541Z,2.70
2018-07-08T07:23:26.923Z,3.07
2018-07-08T07:25:55.335Z,2.80
2018-07-08T07:28:23.730Z,2.50
2018-07-08T07:30:52.137Z,2.67
2018-07-08T07:33:20.553Z,2.97
2018-07-08T07:35:48.954Z,2.60
2018-07-08T07:38:18.033Z,2.60
2018-07-08T07:40:46.829Z,2.23
2018-07-08T07:43:15.294Z,2.60
2018-07-08T07:45:43.727Z,2.30
2018-07-08T07:48:13.067Z,2.50
2018-07-08T07:50:41.474Z,2.47
2018-07-08T07:53:09.878Z,2.30
2018-07-08T07:55:38.747Z,2.07
2018-07-08T07:58:07.152Z,2.30
2018-07-08T08:00:35.542Z,2.10
2018-07-08T08:03:04.208Z,2.33
2018-07-08T08:05:32.600Z,2.30
2018-07-08T08:08:01.014Z,2.53
2018-07-08T08:10:29.422Z,2.40
2018-07-08T08:12:57.802Z,2.80
2018-07-08T08:15:26.188Z,2.00
2018-07-08T08:17:55.034Z,2.43
2018-07-08T08:20:23.416Z,2.20
2018-07-08T08:22:52.274Z,2.10
2018-07-08T08:25:20.663Z,2.40
2018-07-08T08:27:49.070Z,2.17
2018-07-08T08:30:17.999Z,2.53
2018-07-08T08:32:46.404Z,2.30
2018-07-08T08:35:21.235Z,2.30
2018-07-08T08:37:53.824Z,2.00
2018-07-08T08:40:30.447Z,2.07
2018-07-08T08:42:58.838Z,2.40
2018-07-08T08:45:28.687Z,2.00
2018-07-08T08:47:57.492Z,2.10
2018-07-08T08:50:25.896Z,2.63
2018-07-08T08:52:54.289Z,2.40
2018-07-08T08:55:22.679Z,2.00
2018-07-08T08:57:51.089Z,2.23
2018-07-08T09:00:20.395Z,2.20
2018-07-08T09:02:48.779Z,2.40
2018-07-08T09:05:17.185Z,2.37
2018-07-08T09:07:45.593Z,2.13
2018-07-08T09:10:13.993Z,2.60
2018-07-08T09:12:42.389Z,2.60
2018-07-08T09:15:10.785Z,2.30
2018-07-08T09:17:39.208Z,2.60
2018-07-08T09:20:07.607Z,2.70
2018-07-08T09:22:36.006Z,2.20
2018-07-08T09:25:05.029Z,2.50
2018-07-08T09:27:33.434Z,2.40
2018-07-08T09:30:02.040Z,2.47
2018-07-08T09:32:30.429Z,2.67
2018-07-08T09:34:58.825Z,2.57
2018-07-08T09:37:27.236Z,2.60
2018-07-08T09:39:55.639Z,2.60
2018-07-08T09:42:24.036Z,2.50
2018-07-08T09:44:52.447Z,2.63
2018-07-08T09:47:20.860Z,2.40
2018-07-08T09:49:49.253Z,2.50
2018-07-08T09:52:17.641Z,2.47
2018-07-08T09:54:46.031Z,2.50
2018-07-08T09:57:14.425Z,2.57
2018-07-08T09:59:42.881Z,2.70
2018-07-08T10:02:11.269Z,2.60
2018-07-08T10:04:39.740Z,2.70
2018-07-08T10:07:08.065Z,2.70
2018-07-08T10:09:36.446Z,3.07
2018-07-08T10:12:04.848Z,3.07
2018-07-08T10:14:33.240Z,2.70
2018-07-08T10:17:01.658Z,2.50
2018-07-08T10:19:30.189Z,2.90
2018-07-08T10:21:58.940Z,3.23
2018-07-08T10:24:27.337Z,2.63
2018-07-08T10:27:14.671Z,2.97
2018-07-08T10:29:43.108Z,3.07
2018-07-08T10:32:11.527Z,2.90
2018-07-08T10:34:39.935Z,3.30
2018-07-08T10:37:08.351Z,3.50
2018-07-08T10:39:36.764Z,3.83
2018-07-08T10:42:05.165Z,3.77
2018-07-08T10:44:33.571Z,3.73
2018-07-08T10:47:01.975Z,4.33
2018-07-08T10:49:30.387Z,4.00
2018-07-08T10:51:58.779Z,4.13
2018-07-08T10:54:27.191Z,4.20
2018-07-08T10:56:55.601Z,3.90
2018-07-08T10:59:24.015Z,4.00
2018-07-08T11:01:52.451Z,4.00
2018-07-08T11:04:20.861Z,4.10
2018-07-08T11:06:49.283Z,3.17
2018-07-08T11:09:17.725Z,4.37
2018-07-08T11:11:46.145Z,4.43
2018-07-08T11:14:14.557Z,3.73
2018-07-08T11:16:43.867Z,3.77
2018-07-08T11:19:12.637Z,3.47
2018-07-08T11:21:41.081Z,3.80
2018-07-08T11:24:09.489Z,3.93
2018-07-08T11:26:37.909Z,3.90
2018-07-08T11:29:06.311Z,3.30
2018-07-08T11:31:34.735Z,4.13
2018-07-08T11:34:03.151Z,3.90
2018-07-08T11:36:31.544Z,3.97
2018-07-08T11:38:59.952Z,3.70
2018-07-08T11:41:28.380Z,4.00
2018-07-08T11:43:56.782Z,4.27
2018-07-08T11:46:25.189Z,4.00
2018-07-08T11:48:53.896Z,3.70
2018-07-08T11:51:22.294Z,5.20
2018-07-08T11:53:50.700Z,4.07
2018-07-08T11:56:19.106Z,4.33
2018-07-08T11:58:48.578Z,4.17
2018-07-08T12:01:16.998Z,4.03
2018-07-08T12:03:45.390Z,3.37
2018-07-08T12:06:13.966Z,4.00
2018-07-08T12:08:42.396Z,3.70
2018-07-08T12:11:10.786Z,3.70
2018-07-08T12:13:39.180Z,4.33
2018-07-08T12:16:07.599Z,4.50
2018-07-08T12:18:36.009Z,4.13
2018-07-08T12:21:04.407Z,4.17
2018-07-08T12:23:32.828Z,4.00
2018-07-08T12:26:01.796Z,4.33
2018-07-08T12:28:30.239Z,5.10
2018-07-08T12:30:58.667Z,5.00
2018-07-08T12:33:27.071Z,4.60
2018-07-08T12:35:55.705Z,5.00
2018-07-08T12:38:24.563Z,4.10
2018-07-08T12:40:53.183Z,4.30
2018-07-08T12:43:21.576Z,4.53
2018-07-08T12:45:50.657Z,4.67
2018-07-08T12:48:19.049Z,4.77
2018-07-08T12:50:47.703Z,4.60
2018-07-08T12:53:16.101Z,3.80
2018-07-08T12:55:44.508Z,4.30
2018-07-08T12:58:12.905Z,3.90
2018-07-08T13:00:41.339Z,4.30
2018-07-08T13:03:09.717Z,3.60
2018-07-08T13:05:38.113Z,3.90
2018-07-08T13:08:06.511Z,3.40
2018-07-08T13:10:35.389Z,3.60
2018-07-08T13:13:03.787Z,3.30
2018-07-08T13:15:32.767Z,2.90
2018-07-08T13:18:01.178Z,3.37
2018-07-08T13:20:29.583Z,2.97
2018-07-08T13:22:57.969Z,3.20
2018-07-08T13:25:26.368Z,2.40
2018-07-08T13:27:54.766Z,2.90
2018-07-08T13:30:24.214Z,2.50
2018-07-08T13:32:52.666Z,2.40
2018-07-08T13:35:21.062Z,2.80
2018-07-08T13:37:49.472Z,2.70
2018-07-08T13:40:17.877Z,2.63
2018-07-08T13:42:46.276Z,2.57
2018-07-08T13:45:15.383Z,2.90
2018-07-08T13:47:43.782Z,2.67
2018-07-08T13:50:12.185Z,2.43
2018-07-08T13:52:40.592Z,2.50
2018-07-08T13:55:08.980Z,2.70
2018-07-08T13:57:37.402Z,3.00
2018-07-08T14:00:07.128Z,2.87
2018-07-08T14:02:35.564Z,2.50
2018-07-08T14:05:03.996Z,2.60
2018-07-08T14:07:32.395Z,2.50
2018-07-08T14:10:00.868Z,2.60
2018-07-08T14:12:29.340Z,2.50
2018-07-08T14:14:57.974Z,2.53
2018-07-08T14:17:26.373Z,3.00
2018-07-08T14:19:54.770Z,2.60
2018-07-08T14:22:23.272Z,2.50
2018-07-08T14:24:51.669Z,2.90
2018-07-08T14:27:20.075Z,2.50
2018-07-08T14:29:48.464Z,2.50
2018-07-08T14:32:16.866Z,3.03
2018-07-08T14:34:45.343Z,2.43
2018-07-08T14:37:14.171Z,2.50
2018-07-08T14:39:43.203Z,2.23
2018-07-08T14:42:11.597Z,2.70
2018-07-08T14:44:40.802Z,2.60
2018-07-08T14:47:09.217Z,2.27
2018-07-08T14:49:37.627Z,2.00
2018-07-08T14:52:06.689Z,2.00
2018-07-08T14:54:35.229Z,2.00
2018-07-08T14:57:03.891Z,1.90
2018-07-08T14:59:32.315Z,1.90
2018-07-08T15:02:00.705Z,2.10
2018-07-08T15:04:29.845Z,2.20
2018-07-08T15:06:58.246Z,1.87
2018-07-08T15:09:26.634Z,1.83
2018-07-08T15:11:55.473Z,2.03
2018-07-08T15:14:23.873Z,1.73
2018-07-08T15:16:52.279Z,2.00
2018-07-08T15:19:20.680Z,1.70
2018-07-08T15:21:49.399Z,2.10
2018-07-08T15:24:18.010Z,1.70
2018-07-08T15:26:46.447Z,2.13
2018-07-08T15:29:14.850Z,1.90
2018-07-08T15:31:43.312Z,2.00
2018-07-08T15:34:13.068Z,1.90
2018-07-08T15:36:41.476Z,1.80
2018-07-08T15:39:10.912Z,1.80
2018-07-08T15:41:39.480Z,1.93
2018-07-08T15:44:08.398Z,1.70
2018-07-08T15:46:36.824Z,2.33
2018-07-08T15:49:05.219Z,1.70
2018-07-08T15:51:33.640Z,1.70
2018-07-08T15:54:02.790Z,1.50
2018-07-08T15:56:31.161Z,1.60
2018-07-08T15:58:59.689Z,1.80
2018-07-08T16:01:28.101Z,1.67
2018-07-08T16:03:56.495Z,2.10
2018-07-08T16:06:24.901Z,1.70
2018-07-08T16:08:53.329Z,1.60
2018-07-08T16:11:21.767Z,1.90
2018-07-08T16:13:50.755Z,1.80
2018-07-08T16:16:20.230Z,1.80
2018-07-08T16:18:48.698Z,1.60
2018-07-08T16:21:17.122Z,1.87
2018-07-08T16:23:45.681Z,1.40
2018-07-08T16:26:14.090Z,2.00
2018-07-08T16:28:43.386Z,1.60
2018-07-08T16:31:11.795Z,1.90
2018-07-08T16:33:40.203Z,2.00
2018-07-08T16:36:09.064Z,1.50
2018-07-08T16:38:37.506Z,1.60
2018-07-08T16:41:05.896Z,1.83
2018-07-08T16:43:34.315Z,1.70
2018-07-08T16:46:02.704Z,1.77
2018-07-08T16:48:31.106Z,1.60
2018-07-08T16:50:59.542Z,1.87
2018-07-08T16:53:28.342Z,1.87
2018-07-08T16:55:56.742Z,1.77
2018-07-08T16:58:25.709Z,1.80
2018-07-08T17:00:54.102Z,1.80
2018-07-08T17:03:22.502Z,1.70
2018-07-08T17:05:50.896Z,1.77
2018-07-08T17:08:19.718Z,1.83
2018-07-08T17:10:48.135Z,1.43
2018-07-08T17:13:16.535Z,1.60
2018-07-08T17:15:44.918Z,1.60
2018-07-08T17:18:13.298Z,2.03
2018-07-08T17:20:41.743Z,1.73
2018-07-08T17:23:10.628Z,1.60
2018-07-08T17:25:39.038Z,1.80
2018-07-08T17:28:07.606Z,1.57
2018-07-08T17:30:36.022Z,1.90
2018-07-08T17:33:04.419Z,2.00
2018-07-08T17:35:32.805Z,1.80
2018-07-08T17:38:01.204Z,2.00
2018-07-08T17:40:29.650Z,1.70
2018-07-08T17:42:58.431Z,1.83
2018-07-08T17:45:26.863Z,1.70
2018-07-08T17:47:55.617Z,2.00
2018-07-08T17:50:24.017Z,1.90
2018-07-08T17:52:52.460Z,1.67
2018-07-08T17:55:20.846Z,1.90
2018-07-08T17:57:49.259Z,1.70
2018-07-08T18:00:17.677Z,2.00
2018-07-08T18:02:46.075Z,1.77
2018-07-08T18:05:14.488Z,1.73
2018-07-08T18:07:42.984Z,1.70
2018-07-08T18:10:11.396Z,1.60
2018-07-08T18:12:39.800Z,1.60
2018-07-08T18:15:08.877Z,1.63
2018-07-08T18:17:37.313Z,1.40
2018-07-08T18:20:06.946Z,1.80
2018-07-08T18:22:36.231Z,1.83
2018-07-08T18:25:04.666Z,1.70
2018-07-08T18:27:33.199Z,1.80
2018-07-08T18:30:01.611Z,1.80
2018-07-08T18:32:30.004Z,1.73
2018-07-08T18:34:58.418Z,1.63
2018-07-08T18:37:27.109Z,1.57
2018-07-08T18:39:55.533Z,1.70
2018-07-08T18:42:23.937Z,1.57
2018-07-08T18:44:52.351Z,1.90
2018-07-08T18:47:21.556Z,1.87
2018-07-08T18:49:49.971Z,1.80
2018-07-08T18:52:18.379Z,2.00
2018-07-08T18:54:46.988Z,1.73
2018-07-08T18:57:15.408Z,1.90
2018-07-08T18:59:43.966Z,1.80
2018-07-08T19:02:12.397Z,1.63
2018-07-08T19:04:41.114Z,1.83
2018-07-08T19:07:09.540Z,1.90
2018-07-08T19:09:37.932Z,1.73
2018-07-08T19:12:06.510Z,2.00
2018-07-08T19:14:34.941Z,2.10
2018-07-08T19:17:03.362Z,2.10
2018-07-08T19:19:32.789Z,2.30
2018-07-08T19:22:01.210Z,1.90
2018-07-08T19:24:29.709Z,2.00
2018-07-08T19:26:58.115Z,2.43
2018-07-08T19:29:26.540Z,2.53
2018-07-08T19:31:54.966Z,2.40
2018-07-08T19:34:23.360Z,2.37
2018-07-08T19:36:51.756Z,2.83
2018-07-08T19:39:20.171Z,2.77
2018-07-08T19:41:48.659Z,2.47
2018-07-08T19:44:17.302Z,2.40
2018-07-08T19:46:45.700Z,2.60
2018-07-08T19:49:14.115Z,2.57
2018-07-08T19:51:42.743Z,2.60
2018-07-08T19:54:11.135Z,2.77
2018-07-08T19:56:39.999Z,2.53
2018-07-08T19:59:08.464Z,2.50
2018-07-08T20:01:36.830Z,2.90
2018-07-08T20:04:05.599Z,3.03
2018-07-08T20:06:34.007Z,2.80
2018-07-08T20:09:02.471Z,3.03
2018-07-08T20:11:31.102Z,2.93
2018-07-08T20:13:59.542Z,3.13
2018-07-08T20:16:28.443Z,2.80
2018-07-08T20:18:56.840Z,2.90
2018-07-08T20:21:25.446Z,3.00
2018-07-08T20:23:53.680Z,2.83
2018-07-08T20:26:22.091Z,3.00
2018-07-08T20:28:50.497Z,2.77
2018-07-08T20:31:18.910Z,3.20
2018-07-08T20:33:47.444Z,3.10
2018-07-08T20:36:15.876Z,2.53
2018-07-08T20:38:44.286Z,2.93
2018-07-08T20:41:12.686Z,2.87
2018-07-08T20:43:41.778Z,3.10
2018-07-08T20:46:10.190Z,3.17
2018-07-08T20:48:39.792Z,3.00
2018-07-08T20:51:08.198Z,2.77
2018-07-08T20:53:36.822Z,2.80
2018-07-08T20:56:05.216Z,3.00
2018-07-08T20:58:34.058Z,3.40
2018-07-08T21:01:02.472Z,3.87
2018-07-08T21:03:30.910Z,3.70
2018-07-08T21:06:00.644Z,3.97
2018-07-08T21:08:29.051Z,3.70
2018-07-08T21:10:57.460Z,4.13
2018-07-08T21:13:26.930Z,3.40
2018-07-08T21:15:55.332Z,3.70
2018-07-08T21:18:23.722Z,3.97
2018-07-08T21:20:52.139Z,3.43
2018-07-08T21:23:20.526Z,3.70
2018-07-08T21:25:48.949Z,3.90
2018-07-08T21:28:17.371Z,3.57
2018-07-08T21:30:45.779Z,3.13
2018-07-08T21:33:14.175Z,3.67
2018-07-08T21:35:42.587Z,3.20
2018-07-08T21:38:10.997Z,3.07
2018-07-08T21:40:39.407Z,3.30
2018-07-08T21:43:07.803Z,3.47
2018-07-08T21:45:36.333Z,2.80
2018-07-08T21:48:04.807Z,2.80
2018-07-08T21:50:33.233Z,3.13
2018-07-08T21:53:01.633Z,3.77
2018-07-08T21:55:30.051Z,4.00
2018-07-08T21:57:58.873Z,4.20
2018-07-08T22:00:31.445Z,3.50
2018-07-08T22:03:00.974Z,3.80
2018-07-08T22:05:31.372Z,3.43
2018-07-08T22:08:06.116Z,3.60
2018-07-08T22:10:34.558Z,3.70
2018-07-08T22:13:03.966Z,4.13
2018-07-08T22:15:32.384Z,4.07
2018-07-08T22:18:01.467Z,3.87
2018-07-08T22:20:29.871Z,4.13
2018-07-08T22:22:58.261Z,3.70
2018-07-08T22:25:26.872Z,3.50
2018-07-08T22:27:56.178Z,3.50
2018-07-08T22:30:24.581Z,3.83
2018-07-08T22:32:52.995Z,3.70
2018-07-08T22:35:21.415Z,3.40
2018-07-08T22:37:49.932Z,3.80
2018-07-08T22:40:18.318Z,3.50
2018-07-08T22:42:46.714Z,4.03
2018-07-08T22:45:15.102Z,3.80
2018-07-08T22:47:43.492Z,3.63
2018-07-08T22:50:11.890Z,3.47
2018-07-08T22:52:40.291Z,3.80
2018-07-08T22:55:08.784Z,3.80
2018-07-08T22:57:37.170Z,3.70
2018-07-08T23:00:16.798Z,3.73
2018-07-08T23:02:46.988Z,4.43
2018-07-08T23:05:16.398Z,4.50
2018-07-08T23:07:45.346Z,4.10
2018-07-08T23:10:13.740Z,4.10
2018-07-08T23:12:42.149Z,4.50
2018-07-08T23:15:10.834Z,4.80
2018-07-08T23:17:43.684Z,4.93
2018-07-08T23:20:13.051Z,4.93
2018-07-08T23:22:52.606Z,5.07
2018-07-08T23:25:21.011Z,5.37
2018-07-08T23:27:50.208Z,4.87
2018-07-08T23:30:18.607Z,4.80
2018-07-08T23:32:47.127Z,5.40
2018-07-08T23:35:15.522Z,6.77
2018-07-08T23:37:43.903Z,6.37
2018-07-08T23:40:12.273Z,6.80
2018-07-08T23:42:41.044Z,7.40
2018-07-08T23:45:09.519Z,7.83
2018-07-08T23:47:37.993Z,8.33
2018-07-08T23:50:06.479Z,8.40
2018-07-08T23:52:34.889Z,8.17
2018-07-08T23:55:03.427Z,8.17
2018-07-08T23:57:31.846Z,8.70
